• Join FlightAware (Why Join?)
  • Login
  • US Flag 
10:39AM EDT


 

Airport Tracker/Info


-or-


 

Live Flight TrackerFlight Track Log ✈ UAL4457 ✈ 07-Nov-2013 ✈ KIAH - KLEX

Flight Track Log - Related Links

Times and Time Zones

All times are in EST time to prevent confusion due to time zone crossing. See the UAL4457 flight status page for this flight to view local times or setup timezone preferences in your user account.

Time Position Orientation Groundspeed Altitude Reporting Facility
EST Latitude Longitude Course Direction KTS MPH feet Rate Location/Type
03:12PM 29.9839 -95.3553 34° Northeast 154 177 700  Level Houston Center
03:14PM 30.0458 -95.3367 15° North 188 216 2,900 1,260 Climbing Houston Center
03:15PM 30.1022 -95.3072 24° Northeast 206 237 3,900 720 Climbing Houston Center
03:16PM 30.3454 -94.9232 32° Northeast  Level Estimated
03:16PM 30.1611 -95.2769 24° Northeast 219 252 4,400  Level Houston Center
03:17PM 30.4355 -94.8182 34° Northeast  Level Estimated
03:17PM 30.2178 -95.2136 44° Northeast 235 270 6,900  Level Houston Center
03:18PM 30.2700 -95.1558 44° Northeast 252 290 8,900 1,920 Climbing Houston Center
03:19PM 30.3264 -95.0933 44° Northeast 273 314 10,900 1,200 Climbing Houston Center
03:20PM 30.3892 -95.0244 43° Northeast 301 346 11,500 780 Climbing Houston Center
03:21PM 30.4653 -94.9603 36° Northeast 334 384 12,600 1,200 Climbing Houston Center
03:22PM 30.5647 -94.8847 33° Northeast 352 405 14,100 1,200 Climbing Houston Center
03:23PM 30.6494 -94.8203 33° Northeast 362 417 15,200 960 Climbing Houston Center
03:24PM 30.7344 -94.7536 34° Northeast 368 423 16,200 960 Climbing Houston Center
03:25PM 30.8222 -94.6864 33° Northeast 376 433 17,200 720 Climbing Houston Center
03:26PM 30.9117 -94.6164 34° Northeast 387 445 17,800 840 Climbing Houston Center
03:27PM 31.0192 -94.5328 34° Northeast 391 450 19,000 1,020 Climbing Houston Center
03:28PM 31.1097 -94.4619 34° Northeast 396 456 20,000 960 Climbing Houston Center
03:29PM 31.2022 -94.3906 33° Northeast 401 461 21,100 960 Climbing Houston Center
03:30PM 31.2944 -94.3175 34° Northeast 403 464 22,100 960 Climbing Houston Center
03:31PM 31.3889 -94.2444 33° Northeast 405 466 23,100 1,080 Climbing Houston Center
03:32PM 31.5028 -94.1542 34° Northeast 410 472 24,400 1,080 Climbing Houston Center
03:33PM 31.5992 -94.0794 33° Northeast 413 475 25,400 960 Climbing Houston Center
03:34PM 31.6964 -94.0028 34° Northeast 419 482 26,400 960 Climbing Houston Center
03:35PM 31.7953 -93.9239 34° Northeast 421 484 27,500 960 Climbing Houston Center
03:36PM 31.8936 -93.8453 34° Northeast 425 489 28,500 960 Climbing Houston Center
03:37PM 31.9928 -93.7669 34° Northeast 427 491 29,500 1,020 Climbing Houston Center
03:38PM 32.1075 -93.6756 34° Northeast 424 488 30,700 1,080 Climbing Houston Center
03:40PM 32.2089 -93.5936 34° Northeast 427 491 31,800 960 Climbing Houston Center
03:41PM 32.3033 -93.5178 34° Northeast 423 487 32,800 1,020 Climbing Fort Worth Center
03:42PM 32.4111 -93.4269 35° Northeast 428 493 33,900 840 Climbing Fort Worth Center
03:43PM 32.4989 -93.3592 33° Northeast 428 493 34,600 540 Climbing Fort Worth Center
03:44PM 32.6086 -93.2728 34° Northeast 428 493 35,000 180 Climbing Fort Worth Center
03:45PM 32.7144 -93.1864 34° Northeast 447 514 35,000  Level Fort Worth Center
03:46PM 32.8219 -93.0975 35° Northeast 464 534 35,000  Level Fort Worth Center
03:47PM 32.9156 -92.9667 50° Northeast 492 566 35,000  Level Fort Worth Center
03:48PM 33.0003 -92.8311 53° Northeast 505 581 35,000  Level Fort Worth Center
03:49PM 33.0825 -92.6783 57° Northeast 524 603 35,000  Level Fort Worth Center
03:50PM 33.1644 -92.5300 57° Northeast 529 609 35,000  Level Fort Worth Center
03:51PM 33.2442 -92.3864 56° Northeast 529 609 35,000  Level Fort Worth Center
03:51PM 33.2853 -92.3056 59° Northeast 527 606 35,000 240 Level Memphis Center
03:52PM 33.3603 -92.1703 56° Northeast 541 623 35,400 660 Climbing Memphis Center
03:53PM 33.4331 -92.0300 58° Northeast 532 612 36,400 780 Climbing Memphis Center
03:54PM 33.5186 -91.8722 57° Northeast 513 590 37,000 300 Climbing Memphis Center
03:55PM 33.5997 -91.7289 56° Northeast 508 585 37,000  Level Memphis Center
03:56PM 33.6764 -91.5853 57° Northeast 508 585 37,000  Level Memphis Center
03:57PM 33.7569 -91.4342 57° Northeast 513 590 37,000  Level Memphis Center
03:58PM 33.8311 -91.3025 56° Northeast 518 596 37,000  Level Memphis Center
03:59PM 33.9114 -91.1506 57° Northeast 530 610 37,000  Level Memphis Center
04:00PM 33.9894 -90.9961 59° Northeast 536 617 37,000  Level Memphis Center
04:01PM 34.0717 -90.8436 57° Northeast 536 617 37,000  Level Memphis Center
04:02PM 34.1494 -90.6936 58° Northeast 536 617 37,000  Level Memphis Center
04:03PM 34.2311 -90.5406 57° Northeast 536 617 37,000  Level Memphis Center
04:04PM 34.3189 -90.3722 58° Northeast 542 624 37,000  Level Memphis Center
04:05PM 34.3981 -90.2186 58° Northeast 535 616 37,000  Level Memphis Center
04:06PM 34.4750 -90.0650 59° Northeast 540 621 37,000  Level Memphis Center
04:07PM 34.5558 -89.9083 58° Northeast 540 621 37,000  Level Memphis Center
04:08PM 34.6325 -89.7514 59° Northeast 540 621 37,000  Level Memphis Center
04:09PM 34.7128 -89.5917 59° Northeast 545 627 37,000  Level Memphis Center
04:10PM 34.7953 -89.4367 57° Northeast 550 633 37,000  Level Memphis Center
04:11PM 34.8753 -89.2814 58° Northeast 543 625 37,000  Level Memphis Center
04:12PM 34.9531 -89.1233 59° Northeast 543 625 37,000  Level Memphis Center
04:13PM 35.0350 -88.9622 58° Northeast 543 625 37,000  Level Memphis Center
04:14PM 35.1144 -88.8036 58° Northeast 548 631 37,000  Level Memphis Center
04:15PM 35.1956 -88.6369 59° Northeast 557 641 37,000  Level Memphis Center
04:16PM 35.2606 -88.5083 58° Northeast 557 641 37,000  Level Memphis Center
04:17PM 35.3578 -88.3178 58° Northeast 552 635 37,000  Level Memphis Center
04:18PM 35.4281 -88.1658 60° Northeast 552 635 37,000  Level Memphis Center
04:19PM 35.5144 -87.9925 58° Northeast 547 629 37,000  Level Memphis Center
04:20PM 35.5906 -87.8294 60° Northeast 547 629 37,000  Level Memphis Center
04:21PM 35.6747 -87.6633 58° Northeast 547 629 37,000  Level Memphis Center
04:22PM 35.7525 -87.4997 60° Northeast 556 640 37,000  Level Memphis Center
04:23PM 35.8319 -87.3331 60° Northeast 561 646 37,000  Level Memphis Center
04:24PM 35.9069 -87.1714 60° Northeast 553 636 37,000  Level Memphis Center
04:25PM 35.9839 -87.0044 60° Northeast 553 636 37,000  Level Memphis Center
04:26PM 36.0628 -86.8392 59° Northeast 561 646 37,000  Level Memphis Center
04:27PM 36.1458 -86.6814 57° Northeast 556 640 37,000 -60 Level Memphis Center
04:28PM 36.2544 -86.5556 43° Northeast 529 609 36,900 -600 Descending Memphis Center
04:29PM 36.3589 -86.4272 45° Northeast 529 609 35,800 -1,560 Descending Memphis Center
04:30PM 36.4525 -86.2911 49° Northeast 514 592 33,800 -1,440 Descending Memphis Center
04:31PM 36.5497 -86.1467 50° Northeast 527 606 33,000 -420 Descending Memphis Center
04:32PM 36.6450 -86.0019 51° Northeast 539 620 33,000 -900 Level Memphis Center
04:33PM 36.7603 -85.8272 50° Northeast 552 635 31,000 -2,340 Descending Indianapolis Center
04:34PM 36.8547 -85.6839 51° Northeast 536 617 27,700 -3,000 Descending Indianapolis Center
04:35PM 36.9292 -85.5286 59° Northeast 517 595 24,800 -2,040 Descending Indianapolis Center
04:36PM 37.0186 -85.3711 55° Northeast 497 572 23,500 -1,500 Descending Indianapolis Center
04:38PM 37.1114 -85.2456 47° Northeast 502 578 21,700 -2,040 Descending Indianapolis Center
04:39PM 37.1981 -85.1250 48° Northeast 470 541 19,400 -2,580 Descending Indianapolis Center
04:40PM 37.2864 -84.9944 50° Northeast 427 491 16,400 -2,700 Descending Indianapolis Center
04:41PM 37.3617 -84.8897 48° Northeast 408 470 13,900 -2,100 Descending Indianapolis Center
04:42PM 37.4333 -84.7858 49° Northeast 394 453 12,100 -1,380 Descending Indianapolis Center
04:43PM 37.5219 -84.7406 22° Northeast 351 404 10,900 -1,500 Descending Indianapolis Center
04:44PM 37.6253 -84.7217 North 288 331 8,800 -1,920 Descending Indianapolis Center
04:45PM 37.6972 -84.7092 North 268 308 6,900 -1,680 Descending Indianapolis Center
04:46PM 37.7653 -84.6983 North 253 291 5,400 -1,680 Descending Indianapolis Center
04:47PM 37.8342 -84.6864 North 251 289 3,500 -1,200 Descending Indianapolis Center
04:48PM 37.9017 -84.6722 North 248 285 3,000 -420 Descending Indianapolis Center
04:49PM 37.9617 -84.6586 10° North 236 272 2,700 -300 Descending Indianapolis Center